sensor_id;sensor_type;location;lat;lon;timestamp;P1;durP1;ratioP1;P2;durP2;ratioP2
77078;SDS011;66004;55.096;38.760;2023-05-01T00:02:07;9.15;;;4.40;;
77078;SDS011;66004;55.096;38.760;2023-05-01T00:04:33;6.10;;;4.15;;
77078;SDS011;66004;55.096;38.760;2023-05-01T00:06:59;8.45;;;4.20;;
77078;SDS011;66004;55.096;38.760;2023-05-01T00:09:26;9.05;;;4.93;;
77078;SDS011;66004;55.096;38.760;2023-05-01T00:11:52;8.32;;;5.00;;
77078;SDS011;66004;55.096;38.760;2023-05-01T00:14:17;8.93;;;4.63;;
77078;SDS011;66004;55.096;38.760;2023-05-01T00:16:43;7.53;;;4.30;;
77078;SDS011;66004;55.096;38.760;2023-05-01T00:19:10;9.95;;;5.65;;
77078;SDS011;66004;55.096;38.760;2023-05-01T00:24:02;11.23;;;5.03;;
77078;SDS011;66004;55.096;38.760;2023-05-01T00:28:55;11.13;;;5.25;;
77078;SDS011;66004;55.096;38.760;2023-05-01T00:31:25;11.40;;;5.13;;
77078;SDS011;66004;55.096;38.760;2023-05-01T00:33:50;9.00;;;4.82;;
77078;SDS011;66004;55.096;38.760;2023-05-01T00:36:16;10.00;;;5.88;;
77078;SDS011;66004;55.096;38.760;2023-05-01T00:38:41;12.35;;;5.38;;
77078;SDS011;66004;55.096;38.760;2023-05-01T00:41:07;8.98;;;5.30;;
77078;SDS011;66004;55.096;38.760;2023-05-01T00:43:32;16.00;;;5.60;;
77078;SDS011;66004;55.096;38.760;2023-05-01T00:45:58;9.73;;;5.53;;
77078;SDS011;66004;55.096;38.760;2023-05-01T00:48:24;11.98;;;6.07;;
77078;SDS011;66004;55.096;38.760;2023-05-01T00:50:50;10.93;;;5.88;;
77078;SDS011;66004;55.096;38.760;2023-05-01T00:53:18;14.82;;;6.90;;
77078;SDS011;66004;55.096;38.760;2023-05-01T00:55:44;14.00;;;7.93;;
77078;SDS011;66004;55.096;38.760;2023-05-01T00:58:10;11.82;;;7.45;;
77078;SDS011;66004;55.096;38.760;2023-05-01T01:00:36;13.57;;;6.90;;
77078;SDS011;66004;55.096;38.760;2023-05-01T01:03:03;16.35;;;7.95;;
77078;SDS011;66004;55.096;38.760;2023-05-01T01:05:29;12.02;;;6.53;;
77078;SDS011;66004;55.096;38.760;2023-05-01T01:08:18;13.50;;;7.00;;
77078;SDS011;66004;55.096;38.760;2023-05-01T01:13:58;14.82;;;7.18;;
77078;SDS011;66004;55.096;38.760;2023-05-01T01:16:36;14.98;;;6.88;;
77078;SDS011;66004;55.096;38.760;2023-05-01T01:21:48;11.85;;;7.10;;
77078;SDS011;66004;55.096;38.760;2023-05-01T01:24:43;14.13;;;7.75;;
77078;SDS011;66004;55.096;38.760;2023-05-01T01:35:26;11.02;;;6.40;;
77078;SDS011;66004;55.096;38.760;2023-05-01T01:40:58;12.90;;;7.18;;
77078;SDS011;66004;55.096;38.760;2023-05-01T01:43:32;13.25;;;7.07;;
77078;SDS011;66004;55.096;38.760;2023-05-01T01:46:10;14.77;;;7.35;;
77078;SDS011;66004;55.096;38.760;2023-05-01T01:48:37;13.27;;;7.55;;
77078;SDS011;66004;55.096;38.760;2023-05-01T01:51:11;14.75;;;8.00;;
77078;SDS011;66004;55.096;38.760;2023-05-01T01:53:40;15.18;;;8.15;;
77078;SDS011;66004;55.096;38.760;2023-05-01T01:56:14;15.48;;;8.18;;
77078;SDS011;66004;55.096;38.760;2023-05-01T01:58:43;14.48;;;7.95;;
77078;SDS011;66004;55.096;38.760;2023-05-01T02:01:12;14.60;;;7.82;;
77078;SDS011;66004;55.096;38.760;2023-05-01T02:03:39;18.05;;;8.80;;
77078;SDS011;66004;55.096;38.760;2023-05-01T02:06:08;15.50;;;8.63;;
77078;SDS011;66004;55.096;38.760;2023-05-01T02:08:37;17.30;;;8.35;;
77078;SDS011;66004;55.096;38.760;2023-05-01T02:11:02;17.00;;;8.70;;
77078;SDS011;66004;55.096;38.760;2023-05-01T02:13:30;18.42;;;9.05;;
77078;SDS011;66004;55.096;38.760;2023-05-01T02:15:57;14.35;;;8.52;;
77078;SDS011;66004;55.096;38.760;2023-05-01T02:18:27;16.67;;;8.13;;
77078;SDS011;66004;55.096;38.760;2023-05-01T02:20:58;17.33;;;8.50;;
77078;SDS011;66004;55.096;38.760;2023-05-01T02:23:27;14.35;;;7.80;;
77078;SDS011;66004;55.096;38.760;2023-05-01T02:25:55;15.80;;;8.10;;
77078;SDS011;66004;55.096;38.760;2023-05-01T02:28:23;16.83;;;9.10;;
77078;SDS011;66004;55.096;38.760;2023-05-01T02:30:50;16.63;;;8.25;;
77078;SDS011;66004;55.096;38.760;2023-05-01T02:33:16;14.60;;;8.38;;
77078;SDS011;66004;55.096;38.760;2023-05-01T02:35:43;15.38;;;8.15;;
77078;SDS011;66004;55.096;38.760;2023-05-01T02:38:11;17.23;;;8.30;;
77078;SDS011;66004;55.096;38.760;2023-05-01T02:40:37;15.32;;;8.63;;
77078;SDS011;66004;55.096;38.760;2023-05-01T02:43:05;14.43;;;8.13;;
77078;SDS011;66004;55.096;38.760;2023-05-01T02:45:34;15.77;;;8.27;;
77078;SDS011;66004;55.096;38.760;2023-05-01T02:48:03;16.20;;;8.00;;
77078;SDS011;66004;55.096;38.760;2023-05-01T02:52:20;14.27;;;7.40;;
77078;SDS011;66004;55.096;38.760;2023-05-01T02:54:47;12.98;;;7.22;;
77078;SDS011;66004;55.096;38.760;2023-05-01T02:57:13;15.77;;;8.25;;
77078;SDS011;66004;55.096;38.760;2023-05-01T02:59:41;16.30;;;8.35;;
77078;SDS011;66004;55.096;38.760;2023-05-01T03:02:07;16.33;;;7.45;;
77078;SDS011;66004;55.096;38.760;2023-05-01T03:04:32;15.32;;;7.50;;
77078;SDS011;66004;55.096;38.760;2023-05-01T03:09:23;11.27;;;6.27;;
77078;SDS011;66004;55.096;38.760;2023-05-01T03:11:48;13.50;;;6.63;;
77078;SDS011;66004;55.096;38.760;2023-05-01T03:14:14;14.75;;;6.82;;
77078;SDS011;66004;55.096;38.760;2023-05-01T03:16:40;11.30;;;6.00;;
77078;SDS011;66004;55.096;38.760;2023-05-01T03:19:06;14.98;;;6.72;;
77078;SDS011;66004;55.096;38.760;2023-05-01T03:21:31;11.40;;;6.47;;
77078;SDS011;66004;55.096;38.760;2023-05-01T03:23:58;12.05;;;6.72;;
77078;SDS011;66004;55.096;38.760;2023-05-01T03:26:24;12.23;;;6.55;;
77078;SDS011;66004;55.096;38.760;2023-05-01T03:28:50;9.95;;;6.38;;
77078;SDS011;66004;55.096;38.760;2023-05-01T03:31:15;11.75;;;6.47;;
77078;SDS011;66004;55.096;38.760;2023-05-01T03:36:06;11.13;;;5.93;;
77078;SDS011;66004;55.096;38.760;2023-05-01T03:38:35;9.65;;;5.97;;
77078;SDS011;66004;55.096;38.760;2023-05-01T03:41:01;9.40;;;5.68;;
77078;SDS011;66004;55.096;38.760;2023-05-01T03:43:26;11.43;;;6.10;;
77078;SDS011;66004;55.096;38.760;2023-05-01T03:45:52;8.38;;;5.07;;
77078;SDS011;66004;55.096;38.760;2023-05-01T03:48:18;10.35;;;4.72;;
77078;SDS011;66004;55.096;38.760;2023-05-01T03:50:44;7.05;;;4.50;;
77078;SDS011;66004;55.096;38.760;2023-05-01T03:53:10;9.52;;;5.15;;
77078;SDS011;66004;55.096;38.760;2023-05-01T03:55:37;7.78;;;4.38;;
77078;SDS011;66004;55.096;38.760;2023-05-01T03:58:02;8.63;;;4.90;;
77078;SDS011;66004;55.096;38.760;2023-05-01T04:00:28;12.70;;;5.35;;
77078;SDS011;66004;55.096;38.760;2023-05-01T04:05:20;8.57;;;4.78;;
77078;SDS011;66004;55.096;38.760;2023-05-01T04:07:46;8.25;;;5.25;;
77078;SDS011;66004;55.096;38.760;2023-05-01T04:12:37;7.82;;;4.82;;
77078;SDS011;66004;55.096;38.760;2023-05-01T04:17:28;6.30;;;4.82;;
77078;SDS011;66004;55.096;38.760;2023-05-01T04:19:54;9.25;;;5.78;;
77078;SDS011;66004;55.096;38.760;2023-05-01T04:22:22;8.68;;;5.53;;
77078;SDS011;66004;55.096;38.760;2023-05-01T04:24:48;6.57;;;4.68;;
77078;SDS011;66004;55.096;38.760;2023-05-01T04:27:14;7.28;;;4.90;;
77078;SDS011;66004;55.096;38.760;2023-05-01T04:29:39;6.85;;;4.90;;
77078;SDS011;66004;55.096;38.760;2023-05-01T04:32:06;8.88;;;5.40;;
77078;SDS011;66004;55.096;38.760;2023-05-01T04:36:57;8.23;;;5.50;;
77078;SDS011;66004;55.096;38.760;2023-05-01T04:41:48;9.07;;;4.72;;
77078;SDS011;66004;55.096;38.760;2023-05-01T04:44:14;11.25;;;5.75;;
77078;SDS011;66004;55.096;38.760;2023-05-01T04:49:05;8.88;;;5.65;;
77078;SDS011;66004;55.096;38.760;2023-05-01T04:51:30;13.82;;;5.93;;
77078;SDS011;66004;55.096;38.760;2023-05-01T04:53:56;8.30;;;6.20;;
77078;SDS011;66004;55.096;38.760;2023-05-01T04:56:22;8.57;;;5.75;;
77078;SDS011;66004;55.096;38.760;2023-05-01T04:58:48;9.25;;;6.22;;
77078;SDS011;66004;55.096;38.760;2023-05-01T05:03:39;10.10;;;5.88;;
77078;SDS011;66004;55.096;38.760;2023-05-01T05:06:05;10.90;;;5.13;;
77078;SDS011;66004;55.096;38.760;2023-05-01T05:10:59;9.10;;;5.10;;
77078;SDS011;66004;55.096;38.760;2023-05-01T05:13:25;7.00;;;5.22;;
77078;SDS011;66004;55.096;38.760;2023-05-01T05:15:51;9.15;;;5.40;;
77078;SDS011;66004;55.096;38.760;2023-05-01T05:18:17;8.18;;;5.90;;
77078;SDS011;66004;55.096;38.760;2023-05-01T05:20:42;8.60;;;4.65;;
77078;SDS011;66004;55.096;38.760;2023-05-01T05:23:08;8.70;;;6.15;;
77078;SDS011;66004;55.096;38.760;2023-05-01T05:27:59;8.13;;;5.32;;
77078;SDS011;66004;55.096;38.760;2023-05-01T05:30:25;7.53;;;5.72;;
77078;SDS011;66004;55.096;38.760;2023-05-01T05:32:51;7.07;;;4.90;;
77078;SDS011;66004;55.096;38.760;2023-05-01T05:37:42;7.28;;;4.97;;
77078;SDS011;66004;55.096;38.760;2023-05-01T05:40:08;5.93;;;4.40;;
77078;SDS011;66004;55.096;38.760;2023-05-01T05:42:34;7.93;;;4.70;;
77078;SDS011;66004;55.096;38.760;2023-05-01T05:47:25;8.85;;;5.60;;
77078;SDS011;66004;55.096;38.760;2023-05-01T05:52:16;7.53;;;5.60;;
77078;SDS011;66004;55.096;38.760;2023-05-01T05:54:42;7.60;;;4.97;;
77078;SDS011;66004;55.096;38.760;2023-05-01T05:57:07;6.03;;;4.70;;
77078;SDS011;66004;55.096;38.760;2023-05-01T05:59:33;6.88;;;4.50;;
77078;SDS011;66004;55.096;38.760;2023-05-01T06:04:24;9.50;;;4.70;;
77078;SDS011;66004;55.096;38.760;2023-05-01T06:09:15;7.55;;;4.38;;
77078;SDS011;66004;55.096;38.760;2023-05-01T06:11:43;6.15;;;4.88;;
77078;SDS011;66004;55.096;38.760;2023-05-01T06:14:08;6.18;;;4.50;;
77078;SDS011;66004;55.096;38.760;2023-05-01T06:19:00;6.50;;;4.55;;
77078;SDS011;66004;55.096;38.760;2023-05-01T06:21:25;5.47;;;4.05;;
77078;SDS011;66004;55.096;38.760;2023-05-01T06:26:16;6.10;;;3.72;;
77078;SDS011;66004;55.096;38.760;2023-05-01T06:31:07;7.40;;;4.07;;
77078;SDS011;66004;55.096;38.760;2023-05-01T06:35:58;7.25;;;4.70;;
77078;SDS011;66004;55.096;38.760;2023-05-01T06:40:50;5.82;;;3.97;;
77078;SDS011;66004;55.096;38.760;2023-05-01T06:43:15;6.95;;;4.05;;
77078;SDS011;66004;55.096;38.760;2023-05-01T06:45:41;5.70;;;4.45;;
77078;SDS011;66004;55.096;38.760;2023-05-01T06:50:32;8.10;;;4.88;;
77078;SDS011;66004;55.096;38.760;2023-05-01T06:55:27;7.93;;;5.72;;
77078;SDS011;66004;55.096;38.760;2023-05-01T06:57:55;7.78;;;4.95;;
77078;SDS011;66004;55.096;38.760;2023-05-01T07:00:21;8.98;;;5.93;;
77078;SDS011;66004;55.096;38.760;2023-05-01T07:02:47;7.63;;;4.95;;
77078;SDS011;66004;55.096;38.760;2023-05-01T07:07:38;7.75;;;5.60;;
77078;SDS011;66004;55.096;38.760;2023-05-01T07:10:04;9.07;;;5.60;;
77078;SDS011;66004;55.096;38.760;2023-05-01T07:12:30;9.95;;;5.93;;
77078;SDS011;66004;55.096;38.760;2023-05-01T07:17:21;12.25;;;7.18;;
77078;SDS011;66004;55.096;38.760;2023-05-01T07:22:12;8.75;;;5.43;;
77078;SDS011;66004;55.096;38.760;2023-05-01T07:24:38;10.70;;;5.90;;
77078;SDS011;66004;55.096;38.760;2023-05-01T07:29:28;7.65;;;5.60;;
77078;SDS011;66004;55.096;38.760;2023-05-01T07:34:20;8.52;;;5.68;;
77078;SDS011;66004;55.096;38.760;2023-05-01T07:39:11;7.63;;;5.05;;
77078;SDS011;66004;55.096;38.760;2023-05-01T07:41:38;7.53;;;5.30;;
77078;SDS011;66004;55.096;38.760;2023-05-01T07:46:29;8.30;;;5.35;;
77078;SDS011;66004;55.096;38.760;2023-05-01T07:51:20;8.55;;;5.63;;
77078;SDS011;66004;55.096;38.760;2023-05-01T07:56:12;6.82;;;5.15;;
77078;SDS011;66004;55.096;38.760;2023-05-01T08:01:05;8.82;;;6.00;;
77078;SDS011;66004;55.096;38.760;2023-05-01T08:05:56;6.72;;;4.80;;
77078;SDS011;66004;55.096;38.760;2023-05-01T08:10:48;5.05;;;3.58;;
77078;SDS011;66004;55.096;38.760;2023-05-01T08:13:14;6.43;;;4.43;;
77078;SDS011;66004;55.096;38.760;2023-05-01T08:18:09;8.50;;;4.70;;
77078;SDS011;66004;55.096;38.760;2023-05-01T08:20:36;5.55;;;4.00;;
77078;SDS011;66004;55.096;38.760;2023-05-01T08:25:27;5.60;;;3.20;;
77078;SDS011;66004;55.096;38.760;2023-05-01T08:27:53;4.13;;;3.03;;
77078;SDS011;66004;55.096;38.760;2023-05-01T08:30:19;5.57;;;3.80;;
77078;SDS011;66004;55.096;38.760;2023-05-01T08:32:45;5.43;;;3.42;;
77078;SDS011;66004;55.096;38.760;2023-05-01T08:35:10;7.53;;;3.90;;
77078;SDS011;66004;55.096;38.760;2023-05-01T08:37:36;4.40;;;3.63;;
77078;SDS011;66004;55.096;38.760;2023-05-01T08:40:02;4.50;;;3.58;;
77078;SDS011;66004;55.096;38.760;2023-05-01T08:42:33;9.77;;;3.85;;
77078;SDS011;66004;55.096;38.760;2023-05-01T08:45:00;5.43;;;3.40;;
77078;SDS011;66004;55.096;38.760;2023-05-01T08:47:28;5.20;;;3.90;;
77078;SDS011;66004;55.096;38.760;2023-05-01T09:02:45;7.05;;;4.63;;
77078;SDS011;66004;55.096;38.760;2023-05-01T09:05:12;6.72;;;4.68;;
77078;SDS011;66004;55.096;38.760;2023-05-01T09:07:39;7.43;;;4.15;;
77078;SDS011;66004;55.096;38.760;2023-05-01T09:10:06;7.43;;;4.45;;
77078;SDS011;66004;55.096;38.760;2023-05-01T09:12:32;6.72;;;4.03;;
77078;SDS011;66004;55.096;38.760;2023-05-01T09:15:01;7.78;;;4.22;;
77078;SDS011;66004;55.096;38.760;2023-05-01T09:17:28;7.65;;;4.35;;
77078;SDS011;66004;55.096;38.760;2023-05-01T09:19:56;9.60;;;3.78;;
77078;SDS011;66004;55.096;38.760;2023-05-01T09:22:22;7.65;;;3.97;;
77078;SDS011;66004;55.096;38.760;2023-05-01T09:24:47;6.70;;;4.22;;
77078;SDS011;66004;55.096;38.760;2023-05-01T09:27:13;6.05;;;4.13;;
77078;SDS011;66004;55.096;38.760;2023-05-01T09:29:43;5.95;;;3.83;;
77078;SDS011;66004;55.096;38.760;2023-05-01T09:32:11;6.53;;;4.18;;
77078;SDS011;66004;55.096;38.760;2023-05-01T09:34:37;6.13;;;4.38;;
77078;SDS011;66004;55.096;38.760;2023-05-01T09:39:28;7.97;;;4.22;;
77078;SDS011;66004;55.096;38.760;2023-05-01T09:41:53;5.85;;;4.18;;
77078;SDS011;66004;55.096;38.760;2023-05-01T09:44:19;10.32;;;5.28;;
77078;SDS011;66004;55.096;38.760;2023-05-01T09:46:45;5.82;;;3.90;;
77078;SDS011;66004;55.096;38.760;2023-05-01T09:49:11;4.82;;;3.67;;
77078;SDS011;66004;55.096;38.760;2023-05-01T09:51:37;5.75;;;3.78;;
77078;SDS011;66004;55.096;38.760;2023-05-01T09:54:03;8.35;;;3.90;;
77078;SDS011;66004;55.096;38.760;2023-05-01T09:56:29;6.03;;;4.00;;
77078;SDS011;66004;55.096;38.760;2023-05-01T09:58:57;7.78;;;4.10;;
77078;SDS011;66004;55.096;38.760;2023-05-01T10:01:36;6.35;;;4.00;;
77078;SDS011;66004;55.096;38.760;2023-05-01T10:04:06;6.35;;;3.78;;
77078;SDS011;66004;55.096;38.760;2023-05-01T10:06:33;5.88;;;3.63;;
77078;SDS011;66004;55.096;38.760;2023-05-01T10:09:00;5.40;;;3.72;;
77078;SDS011;66004;55.096;38.760;2023-05-01T10:11:27;5.50;;;3.88;;
77078;SDS011;66004;55.096;38.760;2023-05-01T10:14:05;4.68;;;3.60;;
77078;SDS011;66004;55.096;38.760;2023-05-01T10:16:33;6.70;;;3.90;;
77078;SDS011;66004;55.096;38.760;2023-05-01T10:19:00;9.23;;;3.78;;
77078;SDS011;66004;55.096;38.760;2023-05-01T10:21:26;4.50;;;3.22;;
77078;SDS011;66004;55.096;38.760;2023-05-01T10:23:53;4.75;;;3.28;;
77078;SDS011;66004;55.096;38.760;2023-05-01T10:26:21;9.13;;;3.08;;
77078;SDS011;66004;55.096;38.760;2023-05-01T10:28:50;5.57;;;3.53;;
77078;SDS011;66004;55.096;38.760;2023-05-01T10:31:16;5.70;;;3.38;;
77078;SDS011;66004;55.096;38.760;2023-05-01T10:33:43;5.13;;;3.15;;
77078;SDS011;66004;55.096;38.760;2023-05-01T10:36:14;4.18;;;2.88;;
77078;SDS011;66004;55.096;38.760;2023-05-01T10:38:44;5.43;;;3.53;;
77078;SDS011;66004;55.096;38.760;2023-05-01T10:41:12;7.25;;;3.28;;
77078;SDS011;66004;55.096;38.760;2023-05-01T10:43:41;5.97;;;3.15;;
77078;SDS011;66004;55.096;38.760;2023-05-01T10:51:14;5.20;;;2.80;;
77078;SDS011;66004;55.096;38.760;2023-05-01T10:53:42;4.50;;;2.90;;
77078;SDS011;66004;55.096;38.760;2023-05-01T11:03:56;3.45;;;2.80;;
77078;SDS011;66004;55.096;38.760;2023-05-01T11:06:23;4.55;;;2.63;;
77078;SDS011;66004;55.096;38.760;2023-05-01T11:08:49;6.28;;;3.05;;
77078;SDS011;66004;55.096;38.760;2023-05-01T11:18:59;4.82;;;2.63;;
77078;SDS011;66004;55.096;38.760;2023-05-01T11:21:32;3.78;;;2.70;;
77078;SDS011;66004;55.096;38.760;2023-05-01T11:23:59;3.95;;;2.47;;
77078;SDS011;66004;55.096;38.760;2023-05-01T11:26:28;5.72;;;2.42;;
77078;SDS011;66004;55.096;38.760;2023-05-01T11:28:54;6.00;;;2.30;;
77078;SDS011;66004;55.096;38.760;2023-05-01T11:31:22;5.15;;;2.65;;
77078;SDS011;66004;55.096;38.760;2023-05-01T11:33:50;3.70;;;2.50;;
77078;SDS011;66004;55.096;38.760;2023-05-01T11:36:15;6.30;;;2.65;;
77078;SDS011;66004;55.096;38.760;2023-05-01T11:38:52;5.28;;;2.70;;
77078;SDS011;66004;55.096;38.760;2023-05-01T11:41:23;6.53;;;2.65;;
77078;SDS011;66004;55.096;38.760;2023-05-01T11:43:57;9.55;;;2.63;;
77078;SDS011;66004;55.096;38.760;2023-05-01T11:48:56;5.85;;;3.05;;
77078;SDS011;66004;55.096;38.760;2023-05-01T11:51:23;6.35;;;3.30;;
77078;SDS011;66004;55.096;38.760;2023-05-01T11:56:28;7.88;;;3.15;;
77078;SDS011;66004;55.096;38.760;2023-05-01T11:58:56;5.28;;;2.65;;
77078;SDS011;66004;55.096;38.760;2023-05-01T12:04:01;5.45;;;2.40;;
77078;SDS011;66004;55.096;38.760;2023-05-01T12:06:40;3.50;;;2.33;;
77078;SDS011;66004;55.096;38.760;2023-05-01T12:09:10;6.85;;;2.60;;
77078;SDS011;66004;55.096;38.760;2023-05-01T12:11:44;5.95;;;2.80;;
77078;SDS011;66004;55.096;38.760;2023-05-01T12:14:12;5.78;;;3.60;;
77078;SDS011;66004;55.096;38.760;2023-05-01T12:16:39;16.35;;;3.30;;
77078;SDS011;66004;55.096;38.760;2023-05-01T12:19:06;4.95;;;2.92;;
77078;SDS011;66004;55.096;38.760;2023-05-01T12:21:32;4.45;;;3.08;;
77078;SDS011;66004;55.096;38.760;2023-05-01T12:24:32;7.05;;;3.50;;
77078;SDS011;66004;55.096;38.760;2023-05-01T12:26:51;6.07;;;3.00;;
77078;SDS011;66004;55.096;38.760;2023-05-01T12:29:24;5.07;;;2.80;;
77078;SDS011;66004;55.096;38.760;2023-05-01T12:31:50;6.13;;;3.15;;
77078;SDS011;66004;55.096;38.760;2023-05-01T12:34:16;5.00;;;3.35;;
77078;SDS011;66004;55.096;38.760;2023-05-01T12:36:50;5.38;;;2.92;;
77078;SDS011;66004;55.096;38.760;2023-05-01T12:39:17;5.25;;;3.03;;
77078;SDS011;66004;55.096;38.760;2023-05-01T12:41:44;5.80;;;3.13;;
77078;SDS011;66004;55.096;38.760;2023-05-01T12:44:18;5.45;;;2.75;;
77078;SDS011;66004;55.096;38.760;2023-05-01T12:46:54;10.20;;;3.20;;
77078;SDS011;66004;55.096;38.760;2023-05-01T12:49:27;5.18;;;3.17;;
77078;SDS011;66004;55.096;38.760;2023-05-01T12:51:54;8.15;;;3.40;;
77078;SDS011;66004;55.096;38.760;2023-05-01T12:54:26;7.35;;;3.00;;
77078;SDS011;66004;55.096;38.760;2023-05-01T12:56:55;7.60;;;2.67;;
77078;SDS011;66004;55.096;38.760;2023-05-01T12:59:39;6.95;;;2.65;;
77078;SDS011;66004;55.096;38.760;2023-05-01T13:02:07;3.67;;;2.28;;
77078;SDS011;66004;55.096;38.760;2023-05-01T13:04:37;5.68;;;2.63;;
77078;SDS011;66004;55.096;38.760;2023-05-01T13:07:16;6.22;;;2.90;;
77078;SDS011;66004;55.096;38.760;2023-05-01T13:09:50;7.03;;;3.17;;
77078;SDS011;66004;55.096;38.760;2023-05-01T13:12:20;6.35;;;2.63;;
77078;SDS011;66004;55.096;38.760;2023-05-01T13:14:45;4.15;;;2.53;;
77078;SDS011;66004;55.096;38.760;2023-05-01T13:17:12;5.32;;;2.58;;
77078;SDS011;66004;55.096;38.760;2023-05-01T13:22:29;6.82;;;2.70;;
77078;SDS011;66004;55.096;38.760;2023-05-01T13:24:56;7.07;;;2.45;;
77078;SDS011;66004;55.096;38.760;2023-05-01T13:27:22;11.05;;;3.33;;
77078;SDS011;66004;55.096;38.760;2023-05-01T13:32:24;5.40;;;2.20;;
77078;SDS011;66004;55.096;38.760;2023-05-01T13:34:50;6.55;;;2.67;;
77078;SDS011;66004;55.096;38.760;2023-05-01T13:37:18;7.20;;;3.72;;
77078;SDS011;66004;55.096;38.760;2023-05-01T13:39:45;3.58;;;2.50;;
77078;SDS011;66004;55.096;38.760;2023-05-01T13:42:11;4.80;;;2.47;;
77078;SDS011;66004;55.096;38.760;2023-05-01T13:44:42;6.45;;;2.92;;
77078;SDS011;66004;55.096;38.760;2023-05-01T13:47:13;3.70;;;2.28;;
77078;SDS011;66004;55.096;38.760;2023-05-01T13:49:42;3.50;;;2.10;;
77078;SDS011;66004;55.096;38.760;2023-05-01T13:52:11;6.90;;;1.77;;
77078;SDS011;66004;55.096;38.760;2023-05-01T13:54:41;4.18;;;1.98;;
77078;SDS011;66004;55.096;38.760;2023-05-01T13:57:07;5.53;;;2.45;;
77078;SDS011;66004;55.096;38.760;2023-05-01T13:59:40;3.20;;;2.13;;
77078;SDS011;66004;55.096;38.760;2023-05-01T14:02:28;6.57;;;2.22;;
77078;SDS011;66004;55.096;38.760;2023-05-01T14:04:53;3.65;;;1.83;;
77078;SDS011;66004;55.096;38.760;2023-05-01T14:07:20;3.67;;;2.00;;
77078;SDS011;66004;55.096;38.760;2023-05-01T14:09:54;6.10;;;2.13;;
77078;SDS011;66004;55.096;38.760;2023-05-01T14:12:25;3.92;;;2.08;;
77078;SDS011;66004;55.096;38.760;2023-05-01T14:14:53;3.45;;;2.03;;
77078;SDS011;66004;55.096;38.760;2023-05-01T14:19:52;2.30;;;1.92;;
77078;SDS011;66004;55.096;38.760;2023-05-01T14:22:18;3.97;;;2.50;;
77078;SDS011;66004;55.096;38.760;2023-05-01T14:27:11;2.85;;;1.85;;
77078;SDS011;66004;55.096;38.760;2023-05-01T14:29:40;5.00;;;1.92;;
77078;SDS011;66004;55.096;38.760;2023-05-01T14:32:07;4.75;;;1.98;;
77078;SDS011;66004;55.096;38.760;2023-05-01T14:36:58;4.38;;;1.75;;
77078;SDS011;66004;55.096;38.760;2023-05-01T14:41:50;3.25;;;1.42;;
77078;SDS011;66004;55.096;38.760;2023-05-01T14:46:43;4.55;;;1.50;;
77078;SDS011;66004;55.096;38.760;2023-05-01T14:52:19;4.93;;;1.33;;
77078;SDS011;66004;55.096;38.760;2023-05-01T14:54:45;2.25;;;1.25;;
77078;SDS011;66004;55.096;38.760;2023-05-01T14:57:11;2.63;;;1.73;;
77078;SDS011;66004;55.096;38.760;2023-05-01T15:02:02;3.70;;;1.85;;
77078;SDS011;66004;55.096;38.760;2023-05-01T15:04:27;2.60;;;1.85;;
77078;SDS011;66004;55.096;38.760;2023-05-01T15:06:53;3.65;;;1.90;;
77078;SDS011;66004;55.096;38.760;2023-05-01T15:11:44;2.80;;;1.88;;
77078;SDS011;66004;55.096;38.760;2023-05-01T15:16:35;4.03;;;1.83;;
77078;SDS011;66004;55.096;38.760;2023-05-01T15:19:01;3.15;;;1.95;;
77078;SDS011;66004;55.096;38.760;2023-05-01T15:21:26;4.75;;;2.13;;
77078;SDS011;66004;55.096;38.760;2023-05-01T15:26:17;3.35;;;2.00;;
77078;SDS011;66004;55.096;38.760;2023-05-01T15:31:08;3.28;;;1.65;;
77078;SDS011;66004;55.096;38.760;2023-05-01T15:35:59;6.88;;;1.75;;
77078;SDS011;66004;55.096;38.760;2023-05-01T15:38:25;6.18;;;2.10;;
77078;SDS011;66004;55.096;38.760;2023-05-01T15:40:52;6.68;;;3.38;;
77078;SDS011;66004;55.096;38.760;2023-05-01T15:45:43;4.95;;;1.98;;
77078;SDS011;66004;55.096;38.760;2023-05-01T15:48:08;4.15;;;2.20;;
77078;SDS011;66004;55.096;38.760;2023-05-01T15:50:35;3.65;;;2.10;;
77078;SDS011;66004;55.096;38.760;2023-05-01T15:53:00;3.95;;;2.33;;
77078;SDS011;66004;55.096;38.760;2023-05-01T15:55:26;5.60;;;2.60;;
77078;SDS011;66004;55.096;38.760;2023-05-01T16:00:17;3.33;;;1.90;;
77078;SDS011;66004;55.096;38.760;2023-05-01T16:02:43;5.55;;;2.10;;
77078;SDS011;66004;55.096;38.760;2023-05-01T16:05:09;3.10;;;2.03;;
77078;SDS011;66004;55.096;38.760;2023-05-01T16:10:00;6.03;;;2.00;;
77078;SDS011;66004;55.096;38.760;2023-05-01T16:12:28;3.42;;;2.13;;
77078;SDS011;66004;55.096;38.760;2023-05-01T16:14:54;3.53;;;2.13;;
77078;SDS011;66004;55.096;38.760;2023-05-01T16:19:46;3.97;;;2.63;;
77078;SDS011;66004;55.096;38.760;2023-05-01T16:22:15;4.82;;;2.88;;
77078;SDS011;66004;55.096;38.760;2023-05-01T16:24:41;4.18;;;2.45;;
77078;SDS011;66004;55.096;38.760;2023-05-01T16:27:09;4.63;;;2.45;;
77078;SDS011;66004;55.096;38.760;2023-05-01T16:29:36;5.28;;;2.60;;
77078;SDS011;66004;55.096;38.760;2023-05-01T16:32:02;3.88;;;2.35;;
77078;SDS011;66004;55.096;38.760;2023-05-01T16:34:29;3.72;;;2.28;;
77078;SDS011;66004;55.096;38.760;2023-05-01T16:36:55;5.13;;;2.85;;
77078;SDS011;66004;55.096;38.760;2023-05-01T16:41:52;6.40;;;3.60;;
77078;SDS011;66004;55.096;38.760;2023-05-01T16:44:19;4.70;;;2.70;;
77078;SDS011;66004;55.096;38.760;2023-05-01T16:49:18;6.00;;;2.70;;
77078;SDS011;66004;55.096;38.760;2023-05-01T16:51:44;3.45;;;2.42;;
77078;SDS011;66004;55.096;38.760;2023-05-01T16:54:10;3.95;;;2.40;;
77078;SDS011;66004;55.096;38.760;2023-05-01T16:56:35;4.18;;;2.70;;
77078;SDS011;66004;55.096;38.760;2023-05-01T17:01:27;5.90;;;2.92;;
77078;SDS011;66004;55.096;38.760;2023-05-01T17:03:52;5.50;;;3.30;;
77078;SDS011;66004;55.096;38.760;2023-05-01T17:06:18;5.00;;;2.63;;
77078;SDS011;66004;55.096;38.760;2023-05-01T17:08:44;4.55;;;3.00;;
77078;SDS011;66004;55.096;38.760;2023-05-01T17:11:10;5.15;;;3.10;;
77078;SDS011;66004;55.096;38.760;2023-05-01T17:13:38;4.15;;;2.92;;
77078;SDS011;66004;55.096;38.760;2023-05-01T17:16:04;5.93;;;3.65;;
77078;SDS011;66004;55.096;38.760;2023-05-01T17:18:30;4.43;;;2.50;;
77078;SDS011;66004;55.096;38.760;2023-05-01T17:20:55;5.10;;;2.88;;
77078;SDS011;66004;55.096;38.760;2023-05-01T17:25:46;4.30;;;2.40;;
77078;SDS011;66004;55.096;38.760;2023-05-01T17:28:12;3.45;;;2.45;;
77078;SDS011;66004;55.096;38.760;2023-05-01T17:30:37;3.90;;;2.47;;
77078;SDS011;66004;55.096;38.760;2023-05-01T17:33:03;3.53;;;2.17;;
77078;SDS011;66004;55.096;38.760;2023-05-01T17:35:28;3.85;;;2.28;;
77078;SDS011;66004;55.096;38.760;2023-05-01T17:40:19;3.20;;;1.90;;
77078;SDS011;66004;55.096;38.760;2023-05-01T17:42:45;2.72;;;1.40;;
77078;SDS011;66004;55.096;38.760;2023-05-01T17:45:10;4.40;;;2.05;;
77078;SDS011;66004;55.096;38.760;2023-05-01T17:47:36;3.75;;;1.98;;
77078;SDS011;66004;55.096;38.760;2023-05-01T17:50:10;2.45;;;1.77;;
77078;SDS011;66004;55.096;38.760;2023-05-01T17:52:38;3.65;;;1.83;;
77078;SDS011;66004;55.096;38.760;2023-05-01T17:55:04;2.97;;;2.03;;
77078;SDS011;66004;55.096;38.760;2023-05-01T17:59:56;3.72;;;1.63;;
77078;SDS011;66004;55.096;38.760;2023-05-01T18:02:23;3.88;;;1.98;;
77078;SDS011;66004;55.096;38.760;2023-05-01T18:04:49;2.35;;;1.63;;
77078;SDS011;66004;55.096;38.760;2023-05-01T18:07:15;4.28;;;1.70;;
77078;SDS011;66004;55.096;38.760;2023-05-01T18:09:42;3.95;;;1.63;;